Time;durP1;ratioP1;P1;durP2;ratioP2;P2;SDS_P1;SDS_P2;PMS_P1;PMS_P2;Temp;Humidity;BMP_temperature;BMP_pressure;BME280_temperature;BME280_humidity;BME280_pressure;Samples;Min_cycle;Max_cycle;Signal;HPM_P1;HPM_P2
2023/11/19 00:00:27;;;;;;;0.60;0.60;;;18.60;74.70;;;;;;4966022;28;20129;-83
2023/11/19 00:02:53;;;;;;;0.95;0.70;;;18.50;74.70;;;;;;4963340;28;20126;-83
2023/11/19 00:05:18;;;;;;;0.70;0.70;;;18.50;74.70;;;;;;4981043;28;20512;-83
2023/11/19 00:07:44;;;;;;;0.90;0.82;;;18.50;74.80;;;;;;4965338;28;20074;-83
2023/11/19 00:10:10;;;;;;;0.80;0.80;;;18.50;74.80;;;;;;4965046;28;20047;-82
2023/11/19 00:12:38;;;;;;;0.93;0.90;;;18.50;74.80;;;;;;4932259;28;20035;-82
2023/11/19 00:15:04;;;;;;;0.68;0.68;;;18.40;74.70;;;;;;4967687;28;20067;-82
2023/11/19 00:17:30;;;;;;;0.60;0.60;;;18.50;74.80;;;;;;4963854;28;20043;-82
2023/11/19 00:19:56;;;;;;;0.85;0.85;;;18.50;74.80;;;;;;4966129;28;20544;-82
2023/11/19 00:22:22;;;;;;;0.70;0.57;;;18.50;74.80;;;;;;4966738;28;20103;-82
2023/11/19 00:24:47;;;;;;;0.80;0.80;;;18.50;74.80;;;;;;4948231;28;20619;-82
2023/11/19 00:27:13;;;;;;;0.70;0.70;;;18.50;74.80;;;;;;4962627;28;20591;-84
2023/11/19 00:29:38;;;;;;;1.00;1.00;;;18.40;74.80;;;;;;4963033;28;20047;-85
2023/11/19 00:32:05;;;;;;;0.73;0.65;;;18.40;74.80;;;;;;4964026;28;20034;-82
2023/11/19 00:34:31;;;;;;;2.47;0.70;;;18.50;74.80;;;;;;4964811;28;20055;-82
2023/11/19 00:36:56;;;;;;;0.77;0.77;;;18.40;74.80;;;;;;4962891;28;20050;-84
2023/11/19 00:39:22;;;;;;;0.52;0.52;;;18.50;74.90;;;;;;4964890;28;20059;-83
2023/11/19 00:41:48;;;;;;;0.70;0.70;;;18.50;74.80;;;;;;4965474;28;20042;-84
2023/11/19 00:44:13;;;;;;;0.65;0.65;;;18.40;74.70;;;;;;4960464;28;20121;-84
2023/11/19 00:46:39;;;;;;;0.65;0.50;;;18.40;75.50;;;;;;4964933;28;20674;-84
2023/11/19 00:49:05;;;;;;;0.60;0.50;;;18.40;74.80;;;;;;4947574;28;20417;-83
2023/11/19 00:51:31;;;;;;;0.70;0.60;;;18.40;74.80;;;;;;4964845;28;20110;-84
2023/11/19 00:53:57;;;;;;;0.60;0.60;;;18.40;74.70;;;;;;4963583;28;20670;-84
2023/11/19 00:56:24;;;;;;;0.40;0.40;;;18.40;74.80;;;;;;4964903;28;20081;-83
2023/11/19 00:58:49;;;;;;;0.68;0.68;;;18.40;74.80;;;;;;4964003;28;20039;-83
2023/11/19 01:01:15;;;;;;;0.55;0.55;;;18.30;74.80;;;;;;4963517;28;20041;-83
2023/11/19 01:03:40;;;;;;;0.93;0.55;;;18.40;74.90;;;;;;4967147;28;20042;-83
2023/11/19 01:06:08;;;;;;;0.73;0.57;;;18.40;74.80;;;;;;4964426;28;20464;-83
2023/11/19 01:08:35;;;;;;;0.80;0.80;;;18.40;74.90;;;;;;4964523;28;20046;-83
2023/11/19 01:11:02;;;;;;;0.65;0.65;;;18.30;74.80;;;;;;4967857;28;20041;-84
2023/11/19 01:13:27;;;;;;;0.70;0.70;;;18.30;74.90;;;;;;4964358;28;20058;-83
2023/11/19 01:15:53;;;;;;;0.60;0.50;;;18.30;74.80;;;;;;4964125;28;20039;-84
2023/11/19 01:18:18;;;;;;;0.68;0.60;;;18.30;74.80;;;;;;4963999;28;20051;-84
2023/11/19 01:20:44;;;;;;;0.50;0.50;;;18.30;74.80;;;;;;4962886;28;20421;-83
2023/11/19 01:23:09;;;;;;;0.85;0.55;;;18.30;74.90;;;;;;4947735;28;20089;-82
2023/11/19 01:25:35;;;;;;;0.43;0.38;;;18.30;75.70;;;;;;4967449;28;20043;-83
2023/11/19 01:28:02;;;;;;;0.52;0.50;;;18.30;74.90;;;;;;4965478;28;20050;-83
2023/11/19 01:30:28;;;;;;;0.80;0.80;;;18.30;74.90;;;;;;4965566;28;20513;-83
2023/11/19 01:32:53;;;;;;;1.02;0.55;;;18.20;74.90;;;;;;4961431;28;20047;-84
2023/11/19 01:35:19;;;;;;;0.60;0.50;;;18.30;74.90;;;;;;4965385;28;20065;-82
2023/11/19 01:37:44;;;;;;;1.15;0.70;;;18.30;75.00;;;;;;4964956;28;20093;-83
2023/11/19 01:40:11;;;;;;;0.60;0.45;;;18.30;74.90;;;;;;4963848;28;21059;-82
2023/11/19 01:42:40;;;;;;;0.70;0.55;;;18.30;75.00;;;;;;4967638;28;20405;-82
2023/11/19 01:45:07;;;;;;;0.60;0.60;;;18.30;75.00;;;;;;4970580;28;20047;-81
2023/11/19 01:47:33;;;;;;;0.63;0.50;;;18.30;75.00;;;;;;4967685;28;20792;-82
2023/11/19 01:49:58;;;;;;;0.50;0.50;;;18.30;75.10;;;;;;4967944;28;20043;-83
2023/11/19 01:52:24;;;;;;;0.35;0.35;;;18.20;75.10;;;;;;4964029;28;20047;-83
2023/11/19 01:54:50;;;;;;;0.60;0.60;;;18.20;75.00;;;;;;4966589;28;20531;-85
2023/11/19 01:57:15;;;;;;;0.47;0.47;;;18.20;75.00;;;;;;4969743;28;20042;-85
2023/11/19 01:59:41;;;;;;;0.60;0.43;;;18.20;75.10;;;;;;4967240;28;20057;-83
2023/11/19 02:02:07;;;;;;;0.57;0.50;;;18.20;75.10;;;;;;4946830;28;20118;-81
2023/11/19 02:04:33;;;;;;;0.50;0.50;;;18.20;75.20;;;;;;4966571;28;20054;-83
2023/11/19 02:06:59;;;;;;;2.78;0.40;;;18.20;75.20;;;;;;4964783;28;20130;-83
2023/11/19 02:09:24;;;;;;;0.50;0.50;;;18.20;75.20;;;;;;4966904;28;20567;-83
2023/11/19 02:11:51;;;;;;;1.13;0.68;;;18.20;75.20;;;;;;4966849;28;20042;-83
2023/11/19 02:14:21;;;;;;;0.43;0.38;;;18.20;75.20;;;;;;4965765;28;20046;-83
2023/11/19 02:16:47;;;;;;;0.90;0.50;;;18.20;75.30;;;;;;4950205;28;20461;-83
2023/11/19 02:19:13;;;;;;;0.68;0.68;;;18.20;75.30;;;;;;4968611;28;20274;-83
2023/11/19 02:21:38;;;;;;;0.45;0.40;;;18.20;75.20;;;;;;4963037;28;20524;-83
2023/11/19 02:24:06;;;;;;;0.68;0.47;;;18.20;75.20;;;;;;4961928;28;20401;-84
2023/11/19 02:26:42;;;;;;;0.45;0.45;;;18.20;75.20;;;;;;4967628;28;20043;-83
2023/11/19 02:29:08;;;;;;;0.40;0.40;;;18.20;75.30;;;;;;4965784;28;20130;-83
2023/11/19 02:31:35;;;;;;;0.38;0.38;;;18.20;75.30;;;;;;4947905;28;20483;-84
2023/11/19 02:34:02;;;;;;;0.65;0.45;;;18.20;75.40;;;;;;4967807;28;20074;-84
2023/11/19 02:36:27;;;;;;;0.50;0.50;;;18.10;75.30;;;;;;4964895;28;20053;-83
2023/11/19 02:38:53;;;;;;;0.30;0.30;;;18.10;75.30;;;;;;4968138;28;20043;-82
2023/11/19 02:41:19;;;;;;;1.10;0.50;;;18.10;75.30;;;;;;4965479;28;20038;-82
2023/11/19 02:43:44;;;;;;;0.68;0.68;;;18.10;75.30;;;;;;4962650;28;20049;-82
2023/11/19 02:46:10;;;;;;;0.52;0.30;;;18.10;75.30;;;;;;4965036;28;20054;-83
2023/11/19 02:48:36;;;;;;;0.85;0.77;;;18.10;75.30;;;;;;4965212;28;20035;-84
2023/11/19 02:51:03;;;;;;;1.65;0.63;;;18.10;75.30;;;;;;4966782;28;20045;-84
2023/11/19 02:53:29;;;;;;;0.40;0.40;;;18.10;75.40;;;;;;4981190;28;20035;-84
2023/11/19 02:56:01;;;;;;;0.80;0.60;;;18.10;75.30;;;;;;4967307;28;20058;-83
2023/11/19 02:58:28;;;;;;;0.70;0.50;;;18.10;75.40;;;;;;4967355;28;20049;-82
2023/11/19 03:00:57;;;;;;;0.50;0.50;;;18.10;75.40;;;;;;4967216;28;20468;-82
2023/11/19 03:03:30;;;;;;;1.30;0.65;;;18.10;75.40;;;;;;4963879;28;20046;-82
2023/11/19 03:05:56;;;;;;;0.67;0.40;;;18.10;75.40;;;;;;4951845;28;20090;-81
2023/11/19 03:08:22;;;;;;;0.98;0.60;;;18.10;75.40;;;;;;4963930;28;20047;-84
2023/11/19 03:10:48;;;;;;;1.10;0.75;;;18.10;75.40;;;;;;4964506;28;20048;-84
2023/11/19 03:13:14;;;;;;;0.60;0.60;;;18.10;75.40;;;;;;4967118;28;20525;-83
2023/11/19 03:15:40;;;;;;;0.88;0.68;;;18.10;75.40;;;;;;4964790;28;20058;-83
2023/11/19 03:18:05;;;;;;;1.55;0.57;;;18.10;75.40;;;;;;4962745;28;20047;-84
2023/11/19 03:20:31;;;;;;;0.68;0.43;;;18.10;75.50;;;;;;4968198;28;20058;-83
2023/11/19 03:22:57;;;;;;;0.88;0.50;;;18.10;75.50;;;;;;4966429;28;20136;-83
2023/11/19 03:25:26;;;;;;;0.60;0.40;;;18.00;75.40;;;;;;4947742;28;20050;-83
2023/11/19 03:27:53;;;;;;;1.17;0.70;;;18.10;75.40;;;;;;4963247;28;20053;-82
2023/11/19 03:30:18;;;;;;;2.17;0.47;;;18.00;75.50;;;;;;4962945;28;20041;-82
2023/11/19 03:32:44;;;;;;;0.90;0.63;;;18.00;75.40;;;;;;4963819;28;20066;-84
2023/11/19 03:35:11;;;;;;;0.65;0.50;;;18.00;75.40;;;;;;4965532;28;20134;-83
2023/11/19 03:37:37;;;;;;;0.82;0.50;;;18.00;75.40;;;;;;4963513;28;20116;-84
2023/11/19 03:40:03;;;;;;;1.40;0.50;;;18.00;75.40;;;;;;4950624;28;20496;-84
2023/11/19 03:42:31;;;;;;;0.75;0.57;;;18.00;75.80;;;;;;4963724;28;20516;-84
2023/11/19 03:44:57;;;;;;;1.02;0.63;;;18.00;75.30;;;;;;4962984;28;20042;-83
2023/11/19 03:47:22;;;;;;;1.90;0.75;;;18.00;75.40;;;;;;4963271;28;20043;-82
2023/11/19 03:49:51;;;;;;;1.00;0.57;;;18.00;75.30;;;;;;4964675;28;20054;-84
2023/11/19 03:52:17;;;;;;;1.27;0.90;;;18.00;75.30;;;;;;4946452;28;20128;-84
2023/11/19 03:54:43;;;;;;;1.38;0.70;;;18.00;75.30;;;;;;4965364;28;20039;-84
2023/11/19 03:57:10;;;;;;;1.52;0.40;;;18.00;75.30;;;;;;4947819;28;20043;-85
2023/11/19 03:59:36;;;;;;;0.65;0.60;;;18.00;75.40;;;;;;4928670;28;20035;-83
2023/11/19 04:02:02;;;;;;;0.55;0.52;;;18.00;75.40;;;;;;4950956;28;20043;-84
2023/11/19 04:04:29;;;;;;;1.13;0.60;;;18.00;75.40;;;;;;4963114;28;20050;-83
2023/11/19 04:06:55;;;;;;;0.52;0.50;;;18.00;75.40;;;;;;4980775;28;20173;-84
2023/11/19 04:09:20;;;;;;;0.50;0.50;;;18.00;75.50;;;;;;4964102;28;20213;-82
2023/11/19 04:11:46;;;;;;;0.50;0.50;;;18.00;75.40;;;;;;4965491;28;20034;-83
2023/11/19 04:14:13;;;;;;;0.55;0.50;;;18.00;75.40;;;;;;4967268;28;20042;-83
2023/11/19 04:16:39;;;;;;;0.95;0.60;;;17.90;75.40;;;;;;4978460;28;20065;-83
2023/11/19 04:19:04;;;;;;;1.17;0.60;;;18.00;75.50;;;;;;4964008;28;20485;-83
2023/11/19 04:21:30;;;;;;;0.93;0.60;;;18.00;75.50;;;;;;4966029;28;20034;-83
2023/11/19 04:23:56;;;;;;;1.27;0.60;;;18.00;75.60;;;;;;4963973;28;20066;-82
2023/11/19 04:26:21;;;;;;;0.73;0.63;;;17.90;75.40;;;;;;4968525;28;20038;-82
2023/11/19 04:28:49;;;;;;;0.88;0.70;;;17.90;75.50;;;;;;4969259;28;20572;-83
2023/11/19 04:31:16;;;;;;;1.05;0.60;;;17.90;75.50;;;;;;4965770;28;20047;-82
2023/11/19 04:33:41;;;;;;;1.25;0.52;;;17.90;75.40;;;;;;4957195;28;20450;-83
2023/11/19 04:36:08;;;;;;;0.68;0.65;;;17.90;75.50;;;;;;4963216;28;20146;-84
2023/11/19 04:38:34;;;;;;;1.20;0.60;;;17.90;75.40;;;;;;4964700;28;20049;-85
2023/11/19 04:41:00;;;;;;;1.30;0.35;;;17.90;75.50;;;;;;4961984;28;20433;-83
2023/11/19 04:43:25;;;;;;;2.22;0.70;;;17.90;75.50;;;;;;4948855;28;20046;-83
2023/11/19 04:45:51;;;;;;;0.68;0.60;;;17.90;75.50;;;;;;4966382;28;20534;-82
2023/11/19 04:48:16;;;;;;;1.35;0.60;;;17.90;75.50;;;;;;4980192;28;20070;-81
2023/11/19 04:50:42;;;;;;;2.55;0.52;;;17.90;75.60;;;;;;4964551;28;20050;-82
2023/11/19 04:53:08;;;;;;;1.40;0.75;;;17.90;75.50;;;;;;4964379;28;20055;-83
2023/11/19 04:55:33;;;;;;;0.60;0.60;;;17.90;75.60;;;;;;4948655;28;20047;-84
2023/11/19 04:57:59;;;;;;;0.40;0.40;;;17.90;75.60;;;;;;4981622;28;20412;-83
2023/11/19 05:00:25;;;;;;;0.77;0.52;;;17.90;75.50;;;;;;4967220;28;20047;-83
2023/11/19 05:02:51;;;;;;;1.42;0.85;;;17.90;75.60;;;;;;4965378;28;20067;-84
2023/11/19 05:05:17;;;;;;;1.20;0.50;;;17.90;76.40;;;;;;4947539;28;20082;-82
2023/11/19 05:07:43;;;;;;;2.20;0.90;;;17.90;75.60;;;;;;4977138;28;20129;-82
2023/11/19 05:10:08;;;;;;;2.03;0.90;;;17.90;75.60;;;;;;4965733;28;20468;-82
2023/11/19 05:12:34;;;;;;;1.42;0.75;;;17.90;75.60;;;;;;4963674;28;20054;-82
2023/11/19 05:15:00;;;;;;;1.02;0.55;;;17.90;75.60;;;;;;4963858;28;20114;-82
2023/11/19 05:17:25;;;;;;;0.90;0.65;;;17.90;75.60;;;;;;4981422;28;20046;-82
2023/11/19 05:19:51;;;;;;;0.63;0.40;;;17.90;75.60;;;;;;4970303;28;20109;-83
2023/11/19 05:22:17;;;;;;;1.48;0.85;;;17.80;75.50;;;;;;4949380;28;20054;-83
2023/11/19 05:24:42;;;;;;;0.95;0.68;;;17.90;75.60;;;;;;4969957;28;20047;-82
2023/11/19 05:27:11;;;;;;;1.20;0.98;;;17.80;75.50;;;;;;4967559;28;20058;-82
2023/11/19 05:29:39;;;;;;;0.85;0.65;;;17.90;75.60;;;;;;4967371;28;20050;-83
2023/11/19 05:32:05;;;;;;;0.93;0.60;;;17.90;75.60;;;;;;4966859;28;20125;-83
2023/11/19 05:34:30;;;;;;;0.77;0.60;;;17.90;75.70;;;;;;4986056;28;20093;-83
2023/11/19 05:36:57;;;;;;;0.98;0.88;;;17.90;75.70;;;;;;4950895;28;20038;-84
2023/11/19 05:39:22;;;;;;;2.90;0.75;;;17.80;75.70;;;;;;4967982;28;20050;-83
2023/11/19 05:41:48;;;;;;;1.38;0.57;;;17.80;75.60;;;;;;4952216;28;20042;-83
2023/11/19 05:44:13;;;;;;;1.20;0.70;;;17.80;75.70;;;;;;4969642;28;20047;-83
2023/11/19 05:46:42;;;;;;;0.90;0.85;;;17.80;75.60;;;;;;4962102;28;20130;-83
2023/11/19 05:49:08;;;;;;;1.10;0.60;;;17.80;75.70;;;;;;4969771;28;20030;-83
2023/11/19 05:51:37;;;;;;;1.20;0.82;;;17.80;75.60;;;;;;4980872;28;20113;-83
2023/11/19 05:54:02;;;;;;;1.23;0.57;;;17.80;75.70;;;;;;4970033;28;20035;-82
2023/11/19 05:56:32;;;;;;;2.03;0.85;;;17.80;75.60;;;;;;4970259;28;20050;-82
2023/11/19 05:59:00;;;;;;;1.25;0.80;;;17.80;75.60;;;;;;4952677;28;20500;-82
2023/11/19 06:01:26;;;;;;;1.65;0.80;;;17.80;75.60;;;;;;4968173;28;20042;-82
2023/11/19 06:03:52;;;;;;;1.45;0.60;;;17.80;75.80;;;;;;4968920;28;20047;-82
2023/11/19 06:06:18;;;;;;;1.02;0.55;;;17.80;75.70;;;;;;4969097;28;20035;-82
2023/11/19 06:08:43;;;;;;;1.00;0.65;;;17.80;75.60;;;;;;4964378;28;20093;-81
2023/11/19 06:11:14;;;;;;;1.35;0.70;;;17.80;75.60;;;;;;4969914;28;20031;-82
2023/11/19 06:13:40;;;;;;;0.95;0.70;;;17.80;75.60;;;;;;4968505;28;20059;-81
2023/11/19 06:16:06;;;;;;;1.33;0.80;;;17.80;75.70;;;;;;4968271;28;20038;-82
2023/11/19 06:18:32;;;;;;;1.00;0.68;;;17.80;75.70;;;;;;4965136;28;20476;-82
2023/11/19 06:20:57;;;;;;;1.35;0.80;;;17.80;75.70;;;;;;4967685;28;20171;-82
2023/11/19 06:23:23;;;;;;;1.23;0.75;;;17.80;75.70;;;;;;4968744;28;20038;-81
2023/11/19 06:25:48;;;;;;;1.25;0.80;;;17.80;75.70;;;;;;4966893;28;20062;-81
2023/11/19 06:28:14;;;;;;;1.23;0.70;;;17.80;75.70;;;;;;4967973;28;20047;-81
2023/11/19 06:30:41;;;;;;;1.75;0.85;;;17.70;75.70;;;;;;4965400;28;20551;-81
2023/11/19 06:33:07;;;;;;;1.15;0.70;;;17.80;75.70;;;;;;4962131;28;20043;-83
2023/11/19 06:35:36;;;;;;;1.77;0.77;;;17.80;75.70;;;;;;4964730;28;20043;-81
2023/11/19 06:38:04;;;;;;;0.95;0.77;;;17.80;75.80;;;;;;4983544;28;20492;-82
2023/11/19 06:40:30;;;;;;;1.00;0.43;;;17.80;75.70;;;;;;4968842;28;20061;-81
2023/11/19 06:42:56;;;;;;;0.85;0.50;;;17.70;75.70;;;;;;4965409;28;20050;-82
2023/11/19 06:45:21;;;;;;;1.33;0.90;;;17.80;75.70;;;;;;4963995;28;20047;-82
2023/11/19 06:47:47;;;;;;;1.17;0.60;;;17.80;75.50;;;;;;4967138;28;20065;-82
2023/11/19 06:50:13;;;;;;;1.13;0.70;;;17.80;75.50;;;;;;4969592;28;20047;-82
2023/11/19 06:52:38;;;;;;;0.70;0.65;;;17.80;75.50;;;;;;4970111;28;20038;-82
2023/11/19 06:55:04;;;;;;;1.90;0.50;;;17.80;75.50;;;;;;4983642;28;20416;-82
2023/11/19 06:57:32;;;;;;;1.27;0.60;;;17.70;75.50;;;;;;4967888;28;20664;-81
2023/11/19 06:59:58;;;;;;;1.80;0.80;;;17.80;75.50;;;;;;4965977;28;20051;-81
2023/11/19 07:02:24;;;;;;;1.17;0.80;;;17.80;75.50;;;;;;4965764;28;20126;-81
2023/11/19 07:04:49;;;;;;;1.15;0.65;;;17.80;75.50;;;;;;4968778;28;20125;-81
2023/11/19 07:07:15;;;;;;;1.50;0.90;;;17.80;75.60;;;;;;4965938;28;20045;-79
2023/11/19 07:09:41;;;;;;;1.00;0.80;;;17.70;75.50;;;;;;4965625;28;20449;-82
2023/11/19 07:12:06;;;;;;;1.23;0.73;;;17.70;75.60;;;;;;4964593;28;20049;-82
2023/11/19 07:14:32;;;;;;;1.45;0.82;;;17.70;75.50;;;;;;4963713;28;20047;-82
2023/11/19 07:16:57;;;;;;;1.95;0.77;;;17.70;75.60;;;;;;4966268;28;20049;-81
2023/11/19 07:19:23;;;;;;;2.05;1.15;;;17.70;75.50;;;;;;4951776;28;20512;-81
2023/11/19 07:21:49;;;;;;;1.52;0.80;;;17.70;75.60;;;;;;4963029;28;20047;-82
2023/11/19 07:24:14;;;;;;;1.58;0.60;;;17.70;75.50;;;;;;4966650;28;20034;-82
2023/11/19 07:26:43;;;;;;;1.67;0.70;;;17.70;75.50;;;;;;4963866;28;20039;-82
2023/11/19 07:29:09;;;;;;;1.17;0.50;;;17.70;75.50;;;;;;4946870;28;20501;-82
2023/11/19 07:31:35;;;;;;;0.82;0.60;;;17.70;75.60;;;;;;4962768;28;20066;-81
2023/11/19 07:34:00;;;;;;;0.80;0.60;;;17.70;75.50;;;;;;4966291;28;20039;-82
2023/11/19 07:36:26;;;;;;;1.77;0.73;;;17.70;75.60;;;;;;4965715;28;20042;-82
2023/11/19 07:38:51;;;;;;;0.77;0.57;;;17.70;75.50;;;;;;4951225;28;20038;-82
2023/11/19 07:41:17;;;;;;;1.15;0.77;;;17.70;75.60;;;;;;4959057;28;20062;-81
2023/11/19 07:43:46;;;;;;;1.00;0.50;;;17.70;75.50;;;;;;4963680;28;20513;-81
2023/11/19 07:46:13;;;;;;;1.17;0.50;;;17.70;75.50;;;;;;4955768;28;20468;-82
2023/11/19 07:48:42;;;;;;;1.67;0.80;;;17.70;75.40;;;;;;4961851;28;20102;-82
2023/11/19 07:51:08;;;;;;;1.10;0.70;;;17.70;75.50;;;;;;4961939;28;20126;-82
2023/11/19 07:53:33;;;;;;;1.52;1.00;;;17.70;75.40;;;;;;4963752;28;20587;-82
2023/11/19 07:56:00;;;;;;;2.58;1.10;;;17.70;75.50;;;;;;4965052;28;20105;-84
2023/11/19 07:58:25;;;;;;;1.67;0.60;;;17.70;75.40;;;;;;4962778;28;20035;-82
2023/11/19 08:00:52;;;;;;;1.50;0.75;;;17.70;75.40;;;;;;4962095;28;20061;-82
2023/11/19 08:03:18;;;;;;;0.90;0.60;;;17.70;75.50;;;;;;4962595;28;20042;-82
2023/11/19 08:05:44;;;;;;;1.15;0.70;;;17.70;75.40;;;;;;4960180;28;20113;-82
2023/11/19 08:08:10;;;;;;;0.90;0.50;;;17.70;75.40;;;;;;4962659;28;20122;-83
2023/11/19 08:10:36;;;;;;;0.98;0.63;;;17.70;75.40;;;;;;4964762;28;20113;-81
2023/11/19 08:13:01;;;;;;;0.75;0.60;;;17.70;75.40;;;;;;4964482;28;20121;-83
2023/11/19 08:15:27;;;;;;;0.65;0.45;;;17.70;75.40;;;;;;4963126;28;20205;-82
2023/11/19 08:17:53;;;;;;;1.40;0.70;;;17.70;75.30;;;;;;4975622;28;20043;-82
2023/11/19 08:20:18;;;;;;;1.30;0.77;;;17.70;75.30;;;;;;4977035;28;20035;-81
2023/11/19 08:22:44;;;;;;;1.00;0.80;;;17.70;75.40;;;;;;4964650;28;20058;-80
2023/11/19 08:25:09;;;;;;;1.50;0.77;;;17.70;75.30;;;;;;4962686;28;20146;-81
2023/11/19 08:27:35;;;;;;;1.05;0.52;;;17.70;75.60;;;;;;4961908;28;20512;-82
2023/11/19 08:30:01;;;;;;;1.15;0.57;;;17.70;75.80;;;;;;4966609;28;20092;-83
2023/11/19 08:32:26;;;;;;;1.27;0.50;;;17.80;75.50;;;;;;4962833;28;20505;-81
2023/11/19 08:34:52;;;;;;;1.30;0.70;;;17.90;75.40;;;;;;4949490;28;20047;-81
2023/11/19 08:37:20;;;;;;;0.82;0.70;;;17.80;75.80;;;;;;4950556;28;20083;-82
2023/11/19 08:39:49;;;;;;;1.20;1.00;;;17.80;76.30;;;;;;4962186;28;20050;-82
2023/11/19 08:42:15;;;;;;;2.20;0.90;;;17.80;76.40;;;;;;4948861;28;20100;-82
2023/11/19 08:44:43;;;;;;;1.88;0.75;;;17.80;77.80;;;;;;4960040;28;20058;-82
2023/11/19 08:47:12;;;;;;;1.23;0.70;;;17.80;77.90;;;;;;4957693;28;20104;-82
2023/11/19 08:49:38;;;;;;;2.95;1.23;;;17.80;77.80;;;;;;4956887;28;20054;-81
2023/11/19 08:52:04;;;;;;;2.63;0.80;;;17.80;77.70;;;;;;4959833;28;20053;-81
2023/11/19 08:54:30;;;;;;;1.95;1.15;;;17.80;77.60;;;;;;4616358;28;9999858;-81
2023/11/19 08:56:55;;;;;;;1.80;1.00;;;17.80;77.20;;;;;;4964063;28;20113;-81
2023/11/19 08:59:21;;;;;;;0.90;0.60;;;17.80;77.30;;;;;;4596227;28;10000497;-82
2023/11/19 09:01:47;;;;;;;0.90;0.47;;;17.80;77.60;;;;;;4944953;28;20078;-81
2023/11/19 09:04:14;;;;;;;3.75;0.82;;;17.80;77.50;;;;;;4958573;28;20502;-81
2023/11/19 09:06:40;;;;;;;1.00;0.88;;;17.80;77.80;;;;;;4963012;28;20121;-81
2023/11/19 09:09:05;;;;;;;1.35;0.80;;;17.80;77.80;;;;;;4958736;28;20410;-81
2023/11/19 09:11:31;;;;;;;0.88;0.77;;;17.80;77.60;;;;;;4960990;28;20045;-81
2023/11/19 09:13:57;;;;;;;1.67;0.70;;;17.80;77.90;;;;;;4961580;28;20058;-80
2023/11/19 09:16:23;;;;;;;1.70;0.70;;;17.80;77.90;;;;;;4959110;28;20055;-81
2023/11/19 09:18:48;;;;;;;3.72;0.70;;;17.90;77.60;;;;;;4942150;28;20139;-80
2023/11/19 09:21:14;;;;;;;0.85;0.60;;;17.90;77.50;;;;;;4955971;28;20485;-81
2023/11/19 09:23:40;;;;;;;0.95;0.77;;;17.90;77.70;;;;;;4957384;28;20038;-81
2023/11/19 09:26:05;;;;;;;1.85;1.17;;;17.90;77.00;;;;;;4941289;28;20528;-81
2023/11/19 09:28:31;;;;;;;1.73;0.90;;;18.00;77.80;;;;;;4959731;28;20057;-81
2023/11/19 09:30:58;;;;;;;1.98;0.80;;;18.00;78.10;;;;;;4959164;28;20066;-81
2023/11/19 09:33:24;;;;;;;1.77;0.85;;;18.00;77.00;;;;;;4956596;28;20059;-81
2023/11/19 09:35:50;;;;;;;2.05;1.30;;;18.00;77.30;;;;;;4960757;28;20043;-81
2023/11/19 09:38:16;;;;;;;4.90;1.33;;;18.00;77.10;;;;;;4961104;28;20047;-81
2023/11/19 09:40:42;;;;;;;2.05;1.27;;;18.00;77.00;;;;;;4941429;28;20042;-81
2023/11/19 09:43:08;;;;;;;2.60;1.40;;;18.00;76.80;;;;;;4960440;28;20066;-81
2023/11/19 09:45:49;;;;;;;2.30;1.30;;;18.00;76.70;;;;;;4960778;28;20046;-81
2023/11/19 09:48:18;;;;;;;2.35;1.20;;;18.00;76.70;;;;;;4941130;28;20175;-81
2023/11/19 09:50:47;;;;;;;2.08;1.25;;;18.00;76.70;;;;;;4958289;28;20068;-81
2023/11/19 09:53:13;;;;;;;3.20;1.10;;;18.00;76.40;;;;;;4960776;28;20055;-81
2023/11/19 09:55:39;;;;;;;2.00;1.30;;;18.10;76.30;;;;;;4952795;28;20110;-80
2023/11/19 09:58:05;;;;;;;1.73;1.00;;;18.10;76.40;;;;;;4959416;28;20069;-81
2023/11/19 10:00:31;;;;;;;3.60;1.58;;;18.00;76.40;;;;;;4954862;28;20416;-80
2023/11/19 10:02:57;;;;;;;2.83;1.40;;;18.10;76.40;;;;;;4962048;28;20074;-81
2023/11/19 10:05:22;;;;;;;2.25;1.40;;;18.10;76.40;;;;;;4961146;28;20045;-80
2023/11/19 10:07:49;;;;;;;3.80;1.88;;;18.10;76.40;;;;;;4961720;28;20065;-81
2023/11/19 10:10:18;;;;;;;2.55;1.25;;;18.10;76.30;;;;;;4945762;28;20038;-80
2023/11/19 10:12:44;;;;;;;5.78;1.70;;;18.10;76.20;;;;;;4959847;28;20051;-80
2023/11/19 10:15:13;;;;;;;2.92;1.77;;;18.10;76.20;;;;;;4961880;28;20138;-81
2023/11/19 10:17:38;;;;;;;4.50;1.38;;;18.00;76.30;;;;;;4960079;28;20038;-80
2023/11/19 10:20:04;;;;;;;3.63;1.55;;;18.10;76.20;;;;;;4932564;28;20046;-80
2023/11/19 10:22:30;;;;;;;3.00;1.38;;;18.00;76.30;;;;;;4956861;28;20046;-80
2023/11/19 10:24:56;;;;;;;3.58;1.55;;;18.10;76.20;;;;;;4959824;28;20047;-81
2023/11/19 10:27:24;;;;;;;4.47;1.50;;;18.10;77.00;;;;;;4959692;28;20039;-81
2023/11/19 10:29:49;;;;;;;3.95;2.00;;;18.10;76.20;;;;;;4963217;28;20058;-80
2023/11/19 10:32:15;;;;;;;5.03;1.60;;;18.10;76.10;;;;;;4961589;28;20047;-81
2023/11/19 10:34:42;;;;;;;2.63;1.17;;;18.10;76.10;;;;;;4962163;28;20105;-81
2023/11/19 10:37:07;;;;;;;3.63;1.50;;;18.10;75.90;;;;;;4962286;28;20047;-80
2023/11/19 10:39:54;;;;;;;2.85;1.20;;;18.10;76.80;;;;;;4960236;28;20138;-81
2023/11/19 10:42:20;;;;;;;3.67;1.83;;;18.10;76.00;;;;;;4960377;28;20097;-83
2023/11/19 10:44:45;;;;;;;4.13;1.83;;;18.10;76.00;;;;;;4962013;28;20059;-82
2023/11/19 10:47:11;;;;;;;3.10;1.98;;;18.10;76.00;;;;;;4959322;28;20533;-82
2023/11/19 10:49:38;;;;;;;6.63;1.90;;;18.20;76.00;;;;;;4946869;28;20153;-83
2023/11/19 10:52:04;;;;;;;3.67;2.10;;;18.20;76.00;;;;;;4962804;28;20047;-82
2023/11/19 10:54:30;;;;;;;5.25;1.88;;;18.20;76.10;;;;;;4961934;28;20129;-82
2023/11/19 10:56:58;;;;;;;5.47;2.30;;;18.20;76.20;;;;;;4944852;28;20034;-82
2023/11/19 10:59:25;;;;;;;3.38;1.77;;;18.20;76.20;;;;;;4957284;28;20055;-83
2023/11/19 11:01:52;;;;;;;3.45;1.80;;;18.20;76.90;;;;;;4944318;28;20417;-81
2023/11/19 11:04:24;;;;;;;3.38;1.40;;;18.20;76.10;;;;;;4960503;28;20111;-81
2023/11/19 11:06:50;;;;;;;5.22;2.00;;;18.20;76.50;;;;;;4937684;28;20077;-84
2023/11/19 11:09:16;;;;;;;2.65;1.70;;;18.20;76.50;;;;;;4959304;28;20046;-81
2023/11/19 11:11:45;;;;;;;4.72;1.80;;;18.30;76.40;;;;;;4959813;28;20041;-81
2023/11/19 11:14:14;;;;;;;2.90;1.52;;;18.30;76.90;;;;;;4944596;28;20043;-80
2023/11/19 11:16:44;;;;;;;3.25;1.70;;;18.30;77.80;;;;;;4945427;28;20122;-81
2023/11/19 11:19:10;;;;;;;4.10;1.98;;;18.30;78.00;;;;;;4928577;28;20524;-79
2023/11/19 11:21:36;;;;;;;5.30;2.03;;;18.30;78.20;;;;;;4931044;28;20101;-78
2023/11/19 11:24:16;;;;;;;4.13;1.83;;;18.30;78.20;;;;;;4941581;28;20074;-82
2023/11/19 11:26:52;;;;;;;5.43;2.88;;;18.30;77.90;;;;;;4957626;28;20043;-79
2023/11/19 11:29:30;;;;;;;4.63;2.17;;;18.30;77.60;;;;;;4944678;28;20050;-82
2023/11/19 11:32:20;;;;;;;7.03;2.08;;;18.30;77.70;;;;;;4960485;28;20544;-81
2023/11/19 11:34:46;;;;;;;5.65;2.10;;;18.40;77.40;;;;;;4957673;28;20061;-83
2023/11/19 11:37:33;;;;;;;6.68;2.17;;;18.40;77.20;;;;;;4980366;28;20035;-83
2023/11/19 11:40:05;;;;;;;4.10;2.05;;;18.40;77.20;;;;;;4959522;28;20104;-82
2023/11/19 11:42:32;;;;;;;6.10;2.00;;;18.40;76.80;;;;;;4960446;28;20034;-81
2023/11/19 11:45:04;;;;;;;5.18;1.80;;;18.40;76.40;;;;;;4962692;28;20109;-82
2023/11/19 11:47:45;;;;;;;5.63;2.47;;;18.50;75.90;;;;;;4972545;28;20070;-81
2023/11/19 11:50:12;;;;;;;8.18;3.67;;;18.50;76.80;;;;;;4960978;28;20739;-83
2023/11/19 11:52:56;;;;;;;6.70;3.13;;;18.50;78.00;;;;;;4945867;28;20054;-80
2023/11/19 11:55:36;;;;;;;6.43;3.05;;;18.40;78.10;;;;;;4977907;28;20115;-83
2023/11/19 11:58:02;;;;;;;7.63;2.83;;;18.40;78.00;;;;;;4965712;28;20092;-81
2023/11/19 12:00:27;;;;;;;5.55;2.42;;;18.50;78.20;;;;;;4960792;28;20055;-83
2023/11/19 12:02:59;;;;;;;7.30;3.00;;;18.50;78.80;;;;;;4961732;28;20540;-84
2023/11/19 12:05:24;;;;;;;4.43;2.58;;;18.50;82.80;;;;;;4962215;28;20054;-82
2023/11/19 12:08:05;;;;;;;6.47;2.15;;;18.40;83.40;;;;;;4941585;28;20039;-84
2023/11/19 12:10:49;;;;;;;5.85;2.65;;;18.50;81.90;;;;;;4613529;28;10001083;-81
2023/11/19 12:13:17;;;;;;;4.32;2.40;;;18.50;82.20;;;;;;4944669;28;20073;-82
2023/11/19 12:16:01;;;;;;;5.05;2.15;;;18.50;83.10;;;;;;4913144;28;20051;-82
2023/11/19 12:18:27;;;;;;;5.57;1.88;;;18.60;82.00;;;;;;4949691;28;20046;-81
2023/11/19 12:20:53;;;;;;;3.53;2.10;;;18.60;80.90;;;;;;4927316;28;20539;-80
2023/11/19 12:23:18;;;;;;;6.40;2.30;;;18.60;80.40;;;;;;4961596;28;20035;-79
2023/11/19 12:25:45;;;;;;;3.03;1.63;;;18.60;79.40;;;;;;4959290;28;20699;-80
2023/11/19 12:28:16;;;;;;;4.22;1.67;;;18.60;78.60;;;;;;4941690;28;20050;-79
2023/11/19 12:30:41;;;;;;;2.80;1.80;;;18.60;78.20;;;;;;4953813;28;20050;-80
2023/11/19 12:33:10;;;;;;;3.63;1.50;;;18.60;77.70;;;;;;4957367;28;20043;-81
2023/11/19 12:35:46;;;;;;;4.07;1.98;;;18.60;77.60;;;;;;4962214;28;20543;-81
2023/11/19 12:38:21;;;;;;;4.90;1.50;;;18.60;77.50;;;;;;4962888;28;20035;-83
2023/11/19 12:41:12;;;;;;;;;;;;;;;;;;;;;
2023/11/19 12:43:59;;;;;;;5.20;2.33;;;18.60;77.60;;;;;;4958112;28;20520;-84
2023/11/19 12:46:27;;;;;;;3.33;1.95;;;18.60;77.60;;;;;;4940560;28;20043;-84